KEED/EED METAR and TAF weather

Enter ICAO airport designator
Station Type Date Time Source
KEED METAR 2020/02/20 23:56 UTC NOAA

KEED 202356Z AUTO 36012KT 10SM CLR 22/M08 A3012 RMK AO2 SLP182 T02171078 10222 20167 56020


Station Type Date Time Source
KEED Decoded METAR 2020/02/20 23:56 UTC NOAA

NEEDLES AIRPORT, CA, United States (KEED) 34-46N 114-37W
Feb 20, 2020 - 06:56 PM EST / 2020.02.20 2356 UTC
Wind: from the N (360 degrees) at 14 MPH (12 KT):0
Visibility: 10 mile(s):0
Sky conditions: clear
Temperature: 71.1 F (21.7 C)
Dew Point: 18.0 F (-7.8 C)
Relative Humidity: 13%
Pressure (altimeter): 30.12 in. Hg (1019 hPa)
Pressure tendency: 0.06 inches (2.0 hPa) lower than three hours ago
ob: KEED 202356Z AUTO 36012KT 10SM CLR 22/M08 A3012 RMK AO2 SLP182 T02171078 10222 20167 56020
cycle: 0

Station Type Date Time Source
KEED TAF 2020/02/20 20:30 UTC NOAA

TAF
AMD KEED 202028Z 2020/2118 02018G28KT P6SM SKC
FM210200 01009KT P6SM FEW250
FM210600 33008KT P6SM FEW250
FM211700 02011G19KT P6SM BKN250

Example: see airport list